Aérodrome :
LOGIN :

S'inscrire | Disclaimer

   EN    FR    IT 

 










Légende :    VFR   VFR Marginal   IFR   IFR Intensif   IFR Très Intensif
Visi : 
Plafond : 
>= 8 km
>= 3000ft
5 à 8 km
1000 à 3000 ft
1500m à 5 km
500 à 1000 ft
800 à 1500m
200 à 500 ft
< 800m
< 200 ft
Symboles :   Orages  Brouillard  Fortes neiges  Fortes précipitations  Vent > 20 kt
SIGMETs :   Divers  Orages  Givrage  Turbulence  Onde Orograph.  Cendres Volcan.







- Altitude de l'aérodrome : 12 ft
- Code IATA : BCN


LEBL - Barcelone

DERNIER METAR :
  • 241700Z 23017KT CAVOK 25/12 Q1017 NOSIG

METARs EXPIRÉS :
  • 241630Z 23019KT CAVOK 25/15 Q1017 NOSIG
  • 241600Z 22014KT CAVOK 25/14 Q1018 NOSIG
  • 241530Z 22015KT CAVOK 26/15 Q1018 NOSIG
  • 241500Z 22014KT CAVOK 26/15 Q1018 NOSIG
  • 241430Z 22014KT CAVOK 25/15 Q1018 NOSIG

TAF TAF LEBL
Valide du 24 à 12h jusqu'au 25 à 12h UTC


241100Z 2412/2512 21010KT 9999 FEW020 TX26/2412Z TN19/2506Z
BECMG 2420/2422 VRB04KT
TEMPO 2504/2507 32010G20KT
BECMG 2508/2510 22010KT
Pas de NOTAMs connus pour ce terrain.



MET'MAP, la Météo Aéronautique d'un coup d'oeil ! - Copyright ORBIFLY Décembre 2007 - Disclaimer

ORBIFLY MET'MAP TEAM :

Programmation & Développement : Alexandra Zaïnal
Conception & Développement : Baudouin d'Aumeries
Co-Programmation & Développement : Marc-Olivier Méhu
Soutien technique & logistique : Manuel Goepfert

Contact : metmap@orbifly.com




SOURCES & CREDITS :

   NOAA